Time;durP1;ratioP1;P1;durP2;ratioP2;P2;SDS_P1;SDS_P2;PMS_P1;PMS_P2;Temp;Humidity;BMP_temperature;BMP_pressure;BME280_temperature;BME280_humidity;BME280_pressure;Samples;Min_cycle;Max_cycle;Signal;HPM_P1;HPM_P2
2021/05/02 00:01:54;;;;;;;28.58;21.17;;;6.70;99.90;;;;;;5065859;28;20216;-70
2021/05/02 00:04:20;;;;;;;29.15;21.67;;;6.70;99.90;;;;;;5065184;28;20207;-70
2021/05/02 00:06:47;;;;;;;26.05;19.67;;;6.70;99.90;;;;;;5064673;28;20207;-70
2021/05/02 00:09:13;;;;;;;26.33;20.52;;;6.70;99.90;;;;;;5065207;28;20972;-70
2021/05/02 00:11:39;;;;;;;30.10;20.90;;;6.70;99.90;;;;;;5062971;28;20423;-70
2021/05/02 00:14:05;;;;;;;24.67;19.05;;;6.70;99.90;;;;;;5064783;28;20213;-70
2021/05/02 00:16:33;;;;;;;26.00;19.65;;;6.60;99.90;;;;;;5064427;28;20211;-70
2021/05/02 00:18:59;;;;;;;22.98;18.67;;;6.60;99.90;;;;;;5065465;28;20274;-70
2021/05/02 00:21:26;;;;;;;25.92;19.35;;;6.60;99.90;;;;;;5065253;28;20207;-70
2021/05/02 00:23:52;;;;;;;28.58;20.52;;;6.60;99.90;;;;;;5065477;28;20200;-70
2021/05/02 00:26:19;;;;;;;27.02;19.55;;;6.60;99.90;;;;;;5065810;28;20216;-70
2021/05/02 00:28:49;;;;;;;22.38;18.50;;;6.50;99.90;;;;;;5064343;28;20208;-70
2021/05/02 00:31:17;;;;;;;26.60;20.15;;;6.40;99.90;;;;;;5063637;28;20212;-71
2021/05/02 00:33:45;;;;;;;28.83;21.98;;;6.50;99.90;;;;;;5064093;28;20200;-70
2021/05/02 00:36:12;;;;;;;29.75;20.00;;;6.50;99.90;;;;;;5064878;28;20208;-70
2021/05/02 00:38:40;;;;;;;24.33;19.90;;;6.40;99.90;;;;;;5064991;28;20265;-70
2021/05/02 00:41:10;;;;;;;24.85;20.05;;;6.40;99.90;;;;;;5063555;28;21372;-70
2021/05/02 00:43:44;;;;;;;25.80;19.40;;;6.40;99.90;;;;;;5065375;28;20223;-70
2021/05/02 00:46:14;;;;;;;22.90;19.05;;;6.40;99.90;;;;;;5064518;28;20444;-70
2021/05/02 00:48:50;;;;;;;24.83;20.23;;;6.40;99.90;;;;;;5064415;28;20196;-70
2021/05/02 00:51:17;;;;;;;26.15;21.77;;;6.40;99.90;;;;;;5063830;28;20299;-70
2021/05/02 00:53:50;;;;;;;28.95;20.35;;;6.40;99.90;;;;;;5063988;28;20208;-71
2021/05/02 00:56:21;;;;;;;25.15;20.00;;;6.40;99.90;;;;;;5064393;28;20205;-70
2021/05/02 00:58:59;;;;;;;28.33;20.45;;;6.40;99.90;;;;;;5063791;28;20204;-71
2021/05/02 01:01:30;;;;;;;29.33;20.63;;;6.40;99.90;;;;;;5063765;28;20204;-70
2021/05/02 01:03:59;;;;;;;24.23;19.95;;;6.40;99.90;;;;;;5064134;28;20231;-71
2021/05/02 01:06:29;;;;;;;25.55;21.13;;;6.40;99.90;;;;;;5063809;28;20232;-70
2021/05/02 01:08:57;;;;;;;26.30;21.10;;;6.40;99.90;;;;;;5063502;28;20224;-70
2021/05/02 01:11:26;;;;;;;24.80;19.80;;;6.30;99.90;;;;;;5064116;28;20626;-70
2021/05/02 01:13:55;;;;;;;25.38;19.55;;;6.30;99.90;;;;;;5083877;28;20204;-70
2021/05/02 01:16:24;;;;;;;29.42;20.55;;;6.40;99.90;;;;;;5087255;28;20586;-70
2021/05/02 01:18:51;;;;;;;24.08;19.50;;;6.30;99.90;;;;;;5086932;28;20227;-70
2021/05/02 01:21:19;;;;;;;25.10;20.17;;;6.40;99.90;;;;;;5086641;28;20200;-70
2021/05/02 01:23:47;;;;;;;24.88;19.95;;;6.30;99.90;;;;;;5087276;28;20223;-70
2021/05/02 01:26:17;;;;;;;24.73;19.65;;;6.30;99.90;;;;;;5087441;28;20212;-70
2021/05/02 01:28:43;;;;;;;26.42;19.60;;;6.30;99.90;;;;;;5087079;28;20757;-70
2021/05/02 01:31:10;;;;;;;27.58;20.55;;;6.30;99.90;;;;;;5086850;28;20247;-70
2021/05/02 01:33:36;;;;;;;25.25;19.23;;;6.30;99.90;;;;;;5087025;28;20750;-71
2021/05/02 01:36:03;;;;;;;24.60;20.00;;;6.30;99.90;;;;;;5087531;28;20208;-70
2021/05/02 01:38:30;;;;;;;23.25;18.25;;;6.30;99.90;;;;;;5087463;28;20196;-70
2021/05/02 01:40:59;;;;;;;22.70;18.77;;;6.30;99.90;;;;;;5086231;28;20702;-70
2021/05/02 01:43:25;;;;;;;22.48;19.58;;;6.20;99.90;;;;;;5086935;28;20211;-70
2021/05/02 01:45:52;;;;;;;23.00;17.60;;;6.20;99.90;;;;;;5087039;28;20206;-70
2021/05/02 01:48:20;;;;;;;19.52;17.38;;;6.30;99.90;;;;;;5087273;28;20203;-70
2021/05/02 01:50:49;;;;;;;21.08;18.08;;;6.30;99.90;;;;;;5084563;28;20288;-71
2021/05/02 01:53:15;;;;;;;23.30;18.77;;;6.20;99.90;;;;;;5134219;22;20742;-73
2021/05/02 01:55:42;;;;;;;22.13;18.58;;;6.20;99.90;;;;;;5067224;28;20199;-72
2021/05/02 01:58:10;;;;;;;21.83;16.10;;;6.20;99.90;;;;;;5069429;28;20262;-72
2021/05/02 02:00:42;;;;;;;24.50;18.38;;;6.20;99.90;;;;;;5069137;28;20238;-73
2021/05/02 02:03:10;;;;;;;25.92;17.15;;;6.20;99.90;;;;;;5068941;28;20204;-73
2021/05/02 02:05:37;;;;;;;20.52;17.95;;;6.20;99.90;;;;;;5069373;28;20577;-72
2021/05/02 02:08:06;;;;;;;20.85;17.08;;;6.10;99.90;;;;;;5069000;28;20266;-73
2021/05/02 02:10:34;;;;;;;20.45;17.33;;;6.00;99.90;;;;;;5068668;28;20220;-73
2021/05/02 02:13:01;;;;;;;19.98;17.60;;;6.00;99.90;;;;;;5069019;28;20215;-74
2021/05/02 02:15:30;;;;;;;21.17;18.30;;;6.10;99.90;;;;;;5069264;28;20200;-73
2021/05/02 02:17:57;;;;;;;24.02;19.58;;;6.10;99.90;;;;;;5069516;28;20664;-72
2021/05/02 02:20:25;;;;;;;22.92;20.52;;;6.10;99.90;;;;;;5068708;28;20592;-72
2021/05/02 02:22:56;;;;;;;21.98;18.15;;;6.00;99.90;;;;;;5069467;28;20680;-73
2021/05/02 02:25:26;;;;;;;24.35;17.60;;;6.00;99.90;;;;;;5069334;28;21029;-73
2021/05/02 02:27:55;;;;;;;20.95;18.75;;;6.00;99.90;;;;;;5069518;28;20216;-73
2021/05/02 02:30:25;;;;;;;23.20;17.55;;;6.00;99.90;;;;;;5068847;28;20699;-72
2021/05/02 02:32:52;;;;;;;24.17;19.08;;;6.00;99.90;;;;;;5069343;28;20201;-72
2021/05/02 02:35:21;;;;;;;20.02;17.70;;;6.00;99.90;;;;;;5069240;28;20204;-73
2021/05/02 02:37:54;;;;;;;24.17;20.42;;;6.00;99.90;;;;;;5069412;28;20200;-72
2021/05/02 02:40:22;;;;;;;22.70;19.50;;;6.00;99.90;;;;;;5068889;28;20229;-72
2021/05/02 02:42:49;;;;;;;22.13;18.95;;;6.00;99.90;;;;;;5069452;28;20204;-72
2021/05/02 02:45:16;;;;;;;20.95;18.65;;;6.00;99.90;;;;;;5069066;28;20261;-72
2021/05/02 02:47:46;;;;;;;27.92;19.83;;;6.00;99.90;;;;;;5069201;28;20208;-72
2021/05/02 02:50:15;;;;;;;24.27;20.92;;;6.10;99.90;;;;;;5068376;28;20666;-73
2021/05/02 02:52:45;;;;;;;23.20;18.92;;;6.00;99.90;;;;;;5069259;28;20578;-72
2021/05/02 02:55:13;;;;;;;23.60;20.48;;;6.00;99.90;;;;;;5069120;28;20208;-72
2021/05/02 02:57:43;;;;;;;22.20;19.25;;;6.00;99.90;;;;;;5069245;28;20204;-72
2021/05/02 03:00:11;;;;;;;22.88;19.00;;;6.00;99.90;;;;;;5068499;28;20227;-72
2021/05/02 03:02:39;;;;;;;24.75;19.98;;;6.00;99.90;;;;;;5069142;28;20269;-72
2021/05/02 03:05:06;;;;;;;27.17;21.00;;;6.00;99.90;;;;;;5068761;28;20205;-73
2021/05/02 03:07:34;;;;;;;23.90;20.08;;;6.00;99.90;;;;;;5069347;28;20265;-72
2021/05/02 03:10:00;;;;;;;23.27;19.08;;;6.00;99.90;;;;;;5068685;28;20220;-71
2021/05/02 03:12:27;;;;;;;26.80;20.55;;;6.00;99.90;;;;;;5068616;28;20216;-72
2021/05/02 03:14:57;;;;;;;25.23;20.60;;;5.90;99.90;;;;;;5068810;28;20196;-73
2021/05/02 03:17:30;;;;;;;26.25;20.13;;;6.00;99.90;;;;;;5068935;28;20224;-72
2021/05/02 03:20:02;;;;;;;26.50;21.30;;;5.90;99.90;;;;;;5068602;28;20239;-73
2021/05/02 03:22:38;;;;;;;24.75;20.42;;;6.00;99.90;;;;;;5068404;28;20204;-73
2021/05/02 03:25:09;;;;;;;23.92;20.25;;;5.90;99.90;;;;;;5068791;28;20204;-72
2021/05/02 03:27:39;;;;;;;25.48;20.42;;;5.90;99.90;;;;;;5068905;28;20196;-72
2021/05/02 03:30:07;;;;;;;26.83;20.13;;;5.90;99.90;;;;;;5068677;28;20587;-71
2021/05/02 03:32:36;;;;;;;23.85;20.65;;;5.90;99.90;;;;;;5069010;28;20208;-72
2021/05/02 03:35:06;;;;;;;23.65;20.25;;;5.90;99.90;;;;;;5072436;28;20204;-72
2021/05/02 03:37:35;;;;;;;26.88;21.45;;;5.90;99.90;;;;;;5072829;28;20211;-73
2021/05/02 03:40:03;;;;;;;24.65;19.85;;;5.90;99.90;;;;;;5072180;28;20227;-72
2021/05/02 03:42:29;;;;;;;24.40;20.92;;;5.80;99.90;;;;;;5072396;28;20205;-72
2021/05/02 03:44:55;;;;;;;26.23;21.25;;;5.90;99.90;;;;;;5072557;28;20262;-72
2021/05/02 03:47:22;;;;;;;30.45;22.63;;;5.90;99.90;;;;;;5072167;28;20793;-74
2021/05/02 03:49:48;;;;;;;26.17;21.00;;;5.90;99.90;;;;;;5072532;28;20220;-72
2021/05/02 03:52:15;;;;;;;29.15;21.83;;;5.90;99.90;;;;;;5071826;28;20213;-73
2021/05/02 03:54:42;;;;;;;29.55;20.90;;;5.90;99.90;;;;;;5072536;28;20212;-73
2021/05/02 03:57:08;;;;;;;26.30;22.08;;;5.80;99.90;;;;;;5072113;28;20204;-73
2021/05/02 03:59:35;;;;;;;27.85;22.17;;;5.80;99.90;;;;;;5072131;28;20613;-73
2021/05/02 04:02:03;;;;;;;26.35;22.60;;;5.70;99.90;;;;;;5071489;28;20205;-72
2021/05/02 04:04:31;;;;;;;25.80;20.33;;;5.80;99.90;;;;;;5072126;28;20204;-72
2021/05/02 04:06:58;;;;;;;22.95;19.90;;;5.80;99.90;;;;;;5072007;28;20228;-74
2021/05/02 04:09:24;;;;;;;26.63;22.92;;;5.80;99.90;;;;;;5072160;28;20593;-73
2021/05/02 04:11:52;;;;;;;24.95;22.25;;;5.80;99.90;;;;;;5071359;28;20208;-73
2021/05/02 04:14:18;;;;;;;24.60;21.58;;;5.70;99.90;;;;;;5071928;28;20220;-74
2021/05/02 04:16:53;;;;;;;27.45;21.73;;;5.70;99.90;;;;;;5071876;28;20200;-73
2021/05/02 04:19:19;;;;;;;24.83;21.65;;;5.70;99.90;;;;;;5071890;28;20216;-73
2021/05/02 04:21:46;;;;;;;27.35;22.35;;;5.70;99.90;;;;;;5071493;28;20572;-73
2021/05/02 04:24:13;;;;;;;30.77;23.92;;;5.70;99.90;;;;;;5071425;28;20228;-73
2021/05/02 04:26:42;;;;;;;29.42;22.73;;;5.70;99.90;;;;;;5071954;28;20204;-74
2021/05/02 04:29:09;;;;;;;24.48;21.63;;;5.70;99.90;;;;;;5071273;28;20220;-73
2021/05/02 04:31:35;;;;;;;28.58;22.48;;;5.70;99.90;;;;;;5071233;28;20241;-74
2021/05/02 04:34:01;;;;;;;29.73;24.17;;;5.70;99.90;;;;;;5071507;28;20200;-73
2021/05/02 04:36:28;;;;;;;28.48;22.15;;;5.60;99.90;;;;;;5071511;28;20266;-74
2021/05/02 04:38:54;;;;;;;26.42;21.60;;;5.50;99.90;;;;;;5071595;28;20611;-73
2021/05/02 04:41:20;;;;;;;31.48;22.30;;;5.60;99.90;;;;;;5070781;28;20225;-73
2021/05/02 04:43:46;;;;;;;29.27;22.85;;;5.60;99.90;;;;;;5071424;28;20207;-72
2021/05/02 04:46:13;;;;;;;28.13;20.85;;;5.70;99.90;;;;;;5069934;28;20694;-73
2021/05/02 04:48:40;;;;;;;27.20;21.15;;;5.70;99.90;;;;;;5071216;28;20201;-72
2021/05/02 04:51:07;;;;;;;27.27;22.50;;;5.70;99.90;;;;;;5070534;28;20687;-75
2021/05/02 04:53:34;;;;;;;25.95;21.92;;;5.60;99.90;;;;;;5070989;28;20212;-72
2021/05/02 04:56:00;;;;;;;29.25;23.25;;;5.60;99.90;;;;;;5071104;28;20200;-72
2021/05/02 04:58:26;;;;;;;27.10;21.70;;;5.70;99.90;;;;;;5071081;28;20201;-72
2021/05/02 05:00:52;;;;;;;27.98;21.20;;;5.60;99.90;;;;;;5070325;28;20313;-73
2021/05/02 05:03:20;;;;;;;25.75;21.52;;;5.60;99.90;;;;;;5071044;28;20205;-72
2021/05/02 05:05:46;;;;;;;29.25;21.90;;;5.60;99.90;;;;;;5071091;28;20667;-72
2021/05/02 05:08:13;;;;;;;24.73;21.45;;;5.70;99.90;;;;;;5070887;28;20200;-73
2021/05/02 05:10:40;;;;;;;24.92;22.23;;;5.60;99.90;;;;;;5070462;28;20217;-72
2021/05/02 05:13:06;;;;;;;29.83;21.38;;;5.60;99.90;;;;;;5070523;28;20212;-72
2021/05/02 05:15:32;;;;;;;23.85;20.60;;;5.70;99.90;;;;;;5070871;28;20216;-72
2021/05/02 05:17:58;;;;;;;24.50;21.73;;;5.70;99.90;;;;;;5070537;28;20204;-72
2021/05/02 05:20:26;;;;;;;25.33;21.63;;;5.70;99.90;;;;;;5070095;28;20224;-72
2021/05/02 05:22:52;;;;;;;25.13;20.85;;;5.80;99.90;;;;;;5070782;28;20208;-72
2021/05/02 05:25:18;;;;;;;23.65;20.27;;;5.80;99.90;;;;;;5070403;28;20204;-74
2021/05/02 05:27:44;;;;;;;24.05;21.00;;;5.80;99.90;;;;;;5070734;28;20207;-73
2021/05/02 05:30:11;;;;;;;23.73;21.13;;;5.90;99.90;;;;;;5069487;28;20216;-72
2021/05/02 05:32:38;;;;;;;23.27;20.48;;;5.90;99.90;;;;;;5070816;28;20201;-74
2021/05/02 05:35:05;;;;;;;24.00;20.42;;;5.90;99.90;;;;;;5070140;28;20299;-73
2021/05/02 05:37:32;;;;;;;22.75;19.95;;;6.00;99.90;;;;;;5070380;28;20216;-71
2021/05/02 05:39:58;;;;;;;24.40;21.58;;;6.00;99.90;;;;;;5070284;28;20235;-74
2021/05/02 05:42:25;;;;;;;24.27;21.42;;;6.00;99.90;;;;;;5069850;28;20261;-73
2021/05/02 05:44:51;;;;;;;24.50;20.35;;;6.00;99.90;;;;;;5069948;28;20672;-73
2021/05/02 05:47:18;;;;;;;24.60;22.02;;;6.00;99.90;;;;;;5069960;28;20204;-72
2021/05/02 05:49:44;;;;;;;24.70;20.25;;;6.00;99.90;;;;;;5070090;28;20573;-73
2021/05/02 05:52:11;;;;;;;24.00;19.67;;;6.10;99.90;;;;;;5069143;28;20211;-72
2021/05/02 05:54:39;;;;;;;23.30;20.27;;;6.10;99.90;;;;;;5070329;28;20205;-73
2021/05/02 05:57:06;;;;;;;22.85;19.63;;;6.20;99.90;;;;;;5069400;28;20231;-73
2021/05/02 05:59:32;;;;;;;23.00;19.30;;;6.30;99.90;;;;;;5069877;28;20266;-73
2021/05/02 06:01:58;;;;;;;22.98;20.45;;;6.40;99.90;;;;;;5069309;28;20201;-73
2021/05/02 06:04:24;;;;;;;23.80;20.08;;;6.50;99.90;;;;;;5069824;28;20204;-73
2021/05/02 06:06:51;;;;;;;21.23;19.02;;;6.60;99.90;;;;;;5069631;28;20215;-72
2021/05/02 06:09:17;;;;;;;25.23;18.80;;;6.70;99.90;;;;;;5069258;28;20228;-73
2021/05/02 06:11:45;;;;;;;22.08;19.08;;;6.60;99.90;;;;;;5069273;28;20200;-73
2021/05/02 06:14:11;;;;;;;22.10;19.63;;;6.60;99.90;;;;;;5069373;28;20211;-73
2021/05/02 06:16:38;;;;;;;21.50;19.20;;;6.60;99.90;;;;;;5069885;28;20254;-73
2021/05/02 06:19:04;;;;;;;23.45;20.65;;;6.60;99.90;;;;;;5069323;28;20228;-73
2021/05/02 06:21:30;;;;;;;22.52;18.83;;;6.50;99.90;;;;;;5068917;28;20220;-73
2021/05/02 06:23:56;;;;;;;22.45;18.98;;;6.50;99.90;;;;;;5069302;28;20242;-73
2021/05/02 06:26:24;;;;;;;22.05;19.67;;;6.60;99.90;;;;;;5069340;28;20253;-73
2021/05/02 06:28:51;;;;;;;23.23;20.83;;;6.50;99.90;;;;;;5069315;28;20235;-73
2021/05/02 06:31:18;;;;;;;23.23;20.02;;;6.60;99.90;;;;;;5068614;28;20207;-73
2021/05/02 06:33:44;;;;;;;19.88;17.42;;;6.70;99.90;;;;;;5069372;28;20215;-73
2021/05/02 06:36:11;;;;;;;22.38;20.00;;;6.70;99.90;;;;;;5069023;28;20205;-73
2021/05/02 06:38:37;;;;;;;20.20;17.92;;;6.70;99.90;;;;;;5069134;28;20528;-72
2021/05/02 06:41:04;;;;;;;19.98;17.13;;;6.80;99.90;;;;;;5068477;28;20297;-72
2021/05/02 06:43:31;;;;;;;20.15;17.88;;;6.90;99.90;;;;;;5069358;28;20196;-71
2021/05/02 06:45:58;;;;;;;19.55;17.55;;;7.00;99.90;;;;;;5069090;28;20211;-70
2021/05/02 06:48:24;;;;;;;21.45;18.95;;;7.20;99.90;;;;;;5069119;28;20208;-72
2021/05/02 06:50:51;;;;;;;21.52;19.17;;;7.40;99.90;;;;;;5068440;28;20227;-70
2021/05/02 06:53:17;;;;;;;17.77;15.68;;;7.60;99.90;;;;;;5068822;28;20215;-72
2021/05/02 06:55:44;;;;;;;20.50;17.77;;;7.70;99.90;;;;;;5069332;28;20230;-71
2021/05/02 06:58:10;;;;;;;23.02;18.15;;;7.90;99.90;;;;;;5068713;28;20200;-71
2021/05/02 07:00:38;;;;;;;20.05;17.38;;;7.90;99.90;;;;;;5068177;28;20216;-71
2021/05/02 07:03:05;;;;;;;18.45;16.45;;;8.00;99.90;;;;;;5068609;28;20569;-71
2021/05/02 07:05:32;;;;;;;20.45;17.88;;;8.10;99.90;;;;;;5068447;28;20200;-71
2021/05/02 07:07:58;;;;;;;20.08;17.65;;;8.20;99.90;;;;;;5067979;28;20551;-72
2021/05/02 07:10:25;;;;;;;18.30;16.30;;;8.40;99.90;;;;;;5067425;28;20730;-72
2021/05/02 07:12:51;;;;;;;20.67;17.48;;;8.50;99.90;;;;;;5068718;28;20660;-72
2021/05/02 07:15:17;;;;;;;16.05;14.43;;;8.50;99.90;;;;;;5068307;28;20655;-72
2021/05/02 07:17:44;;;;;;;16.58;14.73;;;8.60;99.90;;;;;;5068976;28;20204;-72
2021/05/02 07:20:14;;;;;;;17.10;15.40;;;8.60;99.90;;;;;;5067885;28;20692;-72
2021/05/02 07:22:43;;;;;;;16.85;14.65;;;8.60;99.90;;;;;;5065328;28;20295;-72
2021/05/02 07:25:09;;;;;;;14.65;13.25;;;8.90;99.90;;;;;;5068436;28;20570;-72
2021/05/02 07:27:36;;;;;;;16.90;15.10;;;9.10;99.90;;;;;;5068521;28;20203;-71
2021/05/02 07:30:02;;;;;;;16.55;14.75;;;9.10;99.90;;;;;;5068641;28;20247;-72
2021/05/02 07:32:29;;;;;;;14.80;13.40;;;9.40;99.90;;;;;;5068228;28;20204;-71
2021/05/02 07:34:55;;;;;;;14.57;12.23;;;9.50;99.90;;;;;;5067956;28;20223;-71
2021/05/02 07:37:22;;;;;;;15.02;13.52;;;9.60;99.90;;;;;;5067945;28;20196;-72
2021/05/02 07:39:48;;;;;;;14.07;12.68;;;9.60;99.90;;;;;;5068533;28;20228;-71
2021/05/02 07:42:14;;;;;;;16.10;14.45;;;9.60;99.90;;;;;;5064906;28;20196;-71
2021/05/02 07:44:41;;;;;;;15.57;14.18;;;9.80;99.90;;;;;;5068250;28;20568;-71
2021/05/02 07:47:07;;;;;;;14.65;13.10;;;10.00;99.90;;;;;;5067451;28;20227;-70
2021/05/02 07:49:33;;;;;;;15.40;13.98;;;10.30;99.90;;;;;;5068465;28;20750;-70
2021/05/02 07:51:59;;;;;;;15.32;13.82;;;10.60;99.90;;;;;;5067418;28;20211;-70
2021/05/02 07:54:28;;;;;;;14.20;12.80;;;10.90;99.90;;;;;;5129377;22;20458;-72
2021/05/02 07:56:55;;;;;;;13.40;12.07;;;11.00;99.90;;;;;;5048019;28;20197;-71
2021/05/02 07:59:21;;;;;;;14.38;12.27;;;10.90;99.90;;;;;;5047622;28;20228;-71
2021/05/02 08:01:47;;;;;;;14.15;12.73;;;10.70;99.90;;;;;;5047675;28;20221;-71
2021/05/02 08:04:13;;;;;;;13.85;12.45;;;10.80;99.90;;;;;;5047838;28;20220;-71
2021/05/02 08:06:39;;;;;;;14.05;12.60;;;10.90;99.90;;;;;;5048321;28;20228;-72
2021/05/02 08:09:06;;;;;;;13.70;11.65;;;10.90;99.90;;;;;;5047843;28;20225;-72
2021/05/02 08:11:33;;;;;;;13.60;12.20;;;10.90;99.90;;;;;;5047414;28;20201;-71
2021/05/02 08:14:00;;;;;;;12.93;11.55;;;10.90;99.90;;;;;;5048208;28;20197;-72
2021/05/02 08:16:26;;;;;;;12.60;11.43;;;10.80;99.90;;;;;;5047996;28;20201;-71
2021/05/02 08:18:52;;;;;;;12.13;10.95;;;10.90;99.90;;;;;;5048481;28;20240;-71
2021/05/02 08:21:19;;;;;;;14.10;11.88;;;11.00;99.90;;;;;;5050823;28;20237;-71
2021/05/02 08:23:45;;;;;;;15.60;12.10;;;11.20;99.90;;;;;;5051524;28;20211;-71
2021/05/02 08:26:12;;;;;;;12.55;10.88;;;11.40;99.90;;;;;;5051486;28;20216;-71
2021/05/02 08:28:39;;;;;;;13.38;11.98;;;11.80;99.90;;;;;;5051480;28;20201;-71
2021/05/02 08:31:05;;;;;;;11.98;10.77;;;12.10;99.90;;;;;;5050718;28;20197;-71
2021/05/02 08:33:32;;;;;;;14.18;12.77;;;12.40;99.90;;;;;;5051573;28;20239;-71
2021/05/02 08:35:58;;;;;;;13.18;11.25;;;12.30;99.90;;;;;;5051157;28;20664;-72
2021/05/02 08:38:24;;;;;;;12.85;11.55;;;12.00;99.90;;;;;;5051198;28;20232;-71
2021/05/02 08:40:51;;;;;;;11.90;10.70;;;11.60;99.90;;;;;;5049378;28;20229;-71
2021/05/02 08:43:18;;;;;;;12.63;11.48;;;11.30;99.90;;;;;;5050607;28;20205;-72
2021/05/02 08:45:46;;;;;;;11.73;10.65;;;11.20;99.90;;;;;;5052233;28;20205;-71
2021/05/02 08:48:13;;;;;;;12.48;11.27;;;11.00;99.90;;;;;;5051337;28;20575;-72
2021/05/02 08:50:39;;;;;;;12.30;11.10;;;10.90;99.90;;;;;;5030816;28;20217;-72
2021/05/02 08:53:06;;;;;;;13.68;12.38;;;10.90;99.90;;;;;;5046188;28;20201;-72
2021/05/02 08:55:32;;;;;;;13.63;12.23;;;10.90;99.90;;;;;;5049645;28;20676;-71
2021/05/02 08:57:59;;;;;;;11.70;10.60;;;10.90;99.90;;;;;;5050654;28;20330;-71
2021/05/02 09:00:25;;;;;;;12.75;11.55;;;10.90;99.90;;;;;;5048968;28;20224;-71
2021/05/02 09:02:56;;;;;;;12.80;11.60;;;11.00;99.90;;;;;;5050026;28;20205;-71
2021/05/02 09:05:23;;;;;;;15.98;13.98;;;11.10;99.90;;;;;;5049773;28;20201;-72
2021/05/02 09:07:49;;;;;;;12.75;11.10;;;11.30;99.90;;;;;;5050210;28;20236;-72
2021/05/02 09:10:17;;;;;;;13.38;12.07;;;11.60;99.90;;;;;;5049373;28;20240;-72
2021/05/02 09:12:57;;;;;;;14.20;11.57;;;12.00;99.90;;;;;;5050137;28;20205;-71
2021/05/02 09:15:24;;;;;;;12.43;11.15;;;12.40;99.90;;;;;;5046738;28;20204;-71
2021/05/02 09:17:54;;;;;;;12.43;11.23;;;12.90;99.90;;;;;;5039475;28;20248;-71
2021/05/02 09:20:40;;;;;;;13.20;11.90;;;13.30;99.90;;;;;;5046591;28;20281;-72
2021/05/02 09:23:08;;;;;;;12.60;11.18;;;14.00;99.90;;;;;;5045372;28;20209;-72
2021/05/02 09:25:48;;;;;;;12.18;10.95;;;14.40;99.90;;;;;;5045331;28;20225;-72
2021/05/02 09:28:15;;;;;;;11.30;9.80;;;14.40;98.90;;;;;;5045768;28;20330;-74
2021/05/02 09:30:41;;;;;;;12.63;11.35;;;14.10;99.40;;;;;;5045676;28;20479;-72
2021/05/02 09:33:08;;;;;;;11.43;10.23;;;13.60;96.50;;;;;;5047657;28;20218;-71
2021/05/02 09:35:36;;;;;;;11.45;10.35;;;13.10;96.50;;;;;;5047451;28;20459;-71
2021/05/02 09:38:13;;;;;;;11.00;9.90;;;13.10;97.00;;;;;;5046603;28;20331;-71
2021/05/02 09:40:48;;;;;;;12.13;10.88;;;13.20;99.20;;;;;;5044270;28;20495;-71
2021/05/02 09:43:35;;;;;;;13.10;11.60;;;13.30;95.90;;;;;;5046346;28;20663;-71
2021/05/02 09:46:25;;;;;;;16.00;11.30;;;13.40;96.70;;;;;;5045856;28;20193;-70
2021/05/02 09:48:53;;;;;;;13.70;10.83;;;13.50;95.80;;;;;;5043874;28;21084;-70
2021/05/02 09:51:21;;;;;;;13.63;12.43;;;13.50;95.60;;;;;;5047948;28;20509;-70
2021/05/02 09:54:10;;;;;;;13.93;12.63;;;13.40;97.40;;;;;;5049173;28;20215;-71
2021/05/02 09:56:47;;;;;;;12.77;11.57;;;13.70;95.40;;;;;;5048515;28;20463;-71
2021/05/02 09:59:29;;;;;;;12.97;11.67;;;14.70;95.00;;;;;;5050333;28;20998;-71
2021/05/02 10:02:25;;;;;;;13.80;12.50;;;14.80;93.70;;;;;;5047777;28;20513;-71
2021/05/02 10:04:55;;;;;;;13.27;11.90;;;14.20;92.90;;;;;;5029019;28;20463;-72
2021/05/02 10:07:23;;;;;;;12.27;11.17;;;13.80;93.60;;;;;;5029006;28;20839;-72
2021/05/02 10:09:51;;;;;;;12.80;11.60;;;14.10;95.60;;;;;;5029123;28;20480;-72
2021/05/02 10:12:17;;;;;;;13.20;11.13;;;14.60;92.70;;;;;;5028433;28;20492;-72
2021/05/02 10:14:45;;;;;;;12.87;11.63;;;14.40;92.30;;;;;;5054588;28;20477;-71
2021/05/02 10:17:12;;;;;;;12.80;11.60;;;14.60;91.70;;;;;;5068230;28;20520;-71
2021/05/02 10:19:39;;;;;;;13.50;12.30;;;14.80;92.00;;;;;;5068700;28;20481;-72
2021/05/02 10:22:06;;;;;;;12.70;11.43;;;15.00;90.70;;;;;;5067596;28;20484;-72
2021/05/02 10:24:33;;;;;;;12.33;10.97;;;14.90;91.20;;;;;;5049972;28;20478;-72
2021/05/02 10:27:00;;;;;;;12.30;11.10;;;14.70;91.70;;;;;;5048349;28;20464;-71
2021/05/02 10:29:28;;;;;;;11.87;10.67;;;14.40;90.20;;;;;;5048429;28;20483;-72
2021/05/02 10:31:59;;;;;;;13.60;12.20;;;14.10;92.60;;;;;;5047860;28;20493;-72
2021/05/02 10:34:33;;;;;;;13.37;12.17;;;13.90;92.80;;;;;;5047958;28;20462;-72
2021/05/02 10:37:27;;;;;;;13.00;11.70;;;14.00;92.80;;;;;;5048233;28;20470;-72
2021/05/02 10:39:54;;;;;;;16.73;10.60;;;14.20;92.60;;;;;;5048110;28;20479;-72
2021/05/02 10:42:55;;;;;;;12.07;10.83;;;14.60;90.30;;;;;;5046638;28;20464;-72
2021/05/02 10:45:42;;;;;;;11.67;10.63;;;15.10;90.40;;;;;;4967209;28;20469;-71
2021/05/02 10:48:28;;;;;;;12.27;10.90;;;15.40;89.80;;;;;;4966123;28;21207;-73
2021/05/02 10:50:55;;;;;;;11.70;10.03;;;15.30;89.30;;;;;;5025196;28;20471;-73
2021/05/02 10:53:23;;;;;;;11.07;9.90;;;15.10;89.80;;;;;;5047584;28;20512;-72
2021/05/02 10:55:56;;;;;;;11.37;10.30;;;15.20;91.50;;;;;;5048203;28;20459;-73
2021/05/02 10:58:25;;;;;;;10.87;9.97;;;15.50;90.50;;;;;;5048331;28;20460;-72
2021/05/02 11:00:56;;;;;;;11.03;9.93;;;16.00;90.60;;;;;;5047319;28;20502;-71
2021/05/02 11:03:52;;;;;;;10.83;9.90;;;15.90;90.00;;;;;;5048123;28;20526;-71
2021/05/02 11:06:50;;;;;;;10.20;9.30;;;15.70;86.30;;;;;;5048376;28;20471;-71
2021/05/02 11:09:17;;;;;;;10.83;9.83;;;15.90;85.60;;;;;;5047923;28;20486;-72
2021/05/02 11:11:46;;;;;;;10.90;9.80;;;15.90;85.60;;;;;;5047419;28;20461;-72
2021/05/02 11:14:35;;;;;;;9.83;8.87;;;15.80;87.30;;;;;;5047532;28;20463;-72
2021/05/02 11:17:21;;;;;;;10.63;9.70;;;15.80;85.80;;;;;;5046654;28;21124;-72
2021/05/02 11:19:48;;;;;;;10.17;9.27;;;15.70;84.30;;;;;;5050629;28;20896;-71
2021/05/02 11:22:15;;;;;;;12.27;11.27;;;15.90;86.60;;;;;;5067353;28;20458;-71
2021/05/02 11:24:55;;;;;;;10.73;9.80;;;16.20;86.70;;;;;;5067999;28;20495;-71
2021/05/02 11:28:01;;;;;;;11.20;10.10;;;16.50;85.30;;;;;;5067753;28;20503;-71
2021/05/02 11:30:30;;;;;;;10.70;9.57;;;16.20;84.80;;;;;;5067315;28;20478;-72
2021/05/02 11:32:57;;;;;;;10.87;9.87;;;15.40;87.10;;;;;;5060704;28;20487;-72
2021/05/02 11:35:56;;;;;;;9.53;8.70;;;14.50;90.60;;;;;;5047260;28;21367;-72
2021/05/02 11:38:40;;;;;;;9.73;8.73;;;14.00;92.70;;;;;;5047139;28;20459;-72
2021/05/02 11:41:10;;;;;;;8.07;7.27;;;14.70;93.50;;;;;;5047237;28;20538;-72
2021/05/02 11:43:38;;;;;;;8.03;7.40;;;15.50;92.80;;;;;;5047829;28;20597;-72
2021/05/02 11:46:15;;;;;;;8.00;7.27;;;15.30;90.30;;;;;;5047221;28;20459;-72
2021/05/02 11:48:42;;;;;;;8.50;7.80;;;14.80;88.00;;;;;;5047500;28;20463;-71
2021/05/02 11:51:14;;;;;;;8.07;7.27;;;14.20;89.80;;;;;;5046738;28;20460;-71
2021/05/02 11:53:43;;;;;;;10.40;9.43;;;13.60;91.60;;;;;;5045391;28;20467;-71
2021/05/02 11:56:27;;;;;;;10.97;10.03;;;13.10;91.80;;;;;;5051685;28;20459;-72
2021/05/02 11:58:55;;;;;;;9.73;8.83;;;12.60;91.80;;;;;;5049569;28;20479;-74
2021/05/02 12:01:27;;;;;;;10.57;9.57;;;12.40;93.00;;;;;;5051099;28;20513;-71
2021/05/02 12:03:54;;;;;;;11.20;10.20;;;12.00;94.00;;;;;;5051657;28;20201;-73
2021/05/02 12:06:39;;;;;;;10.20;9.30;;;12.00;94.60;;;;;;5051787;28;20282;-72
2021/05/02 12:09:12;;;;;;;11.40;10.37;;;12.30;95.10;;;;;;5051542;28;20254;-72
2021/05/02 12:11:39;;;;;;;10.95;9.90;;;12.80;95.50;;;;;;5051397;28;20455;-72
2021/05/02 12:14:05;;;;;;;11.52;10.45;;;13.40;94.90;;;;;;5051579;28;20219;-71
2021/05/02 12:16:32;;;;;;;10.77;9.77;;;13.80;93.90;;;;;;5044538;28;20201;-71
2021/05/02 12:19:01;;;;;;;8.60;7.90;;;13.80;93.00;;;;;;5050356;28;20536;-71
2021/05/02 12:21:38;;;;;;;7.95;7.13;;;13.40;92.40;;;;;;5049808;28;20491;-71
2021/05/02 12:24:10;;;;;;;12.02;8.90;;;12.40;93.80;;;;;;5050155;28;20201;-71
2021/05/02 12:26:41;;;;;;;8.77;7.97;;;11.20;96.30;;;;;;5050573;28;20216;-71
2021/05/02 12:29:09;;;;;;;9.88;8.73;;;10.40;98.40;;;;;;5049526;28;20221;-70
2021/05/02 12:31:36;;;;;;;12.98;9.50;;;9.70;99.90;;;;;;5049832;28;20296;-71
2021/05/02 12:34:05;;;;;;;10.32;9.23;;;9.40;99.90;;;;;;5050042;28;20212;-71
2021/05/02 12:36:32;;;;;;;10.77;9.75;;;9.30;99.90;;;;;;5049747;28;20205;-71
2021/05/02 12:39:05;;;;;;;11.18;10.18;;;9.50;99.90;;;;;;5049939;28;20229;-71
2021/05/02 12:41:33;;;;;;;12.75;10.48;;;10.20;99.90;;;;;;5049231;28;20225;-71
2021/05/02 12:44:11;;;;;;;8.40;7.70;;;10.80;99.90;;;;;;5050214;28;20205;-71
2021/05/02 12:46:40;;;;;;;9.38;8.55;;;11.90;99.90;;;;;;5046736;28;20196;-71